Time;durP1;ratioP1;P1;durP2;ratioP2;P2;SDS_P1;SDS_P2;PMS_P1;PMS_P2;Temp;Humidity;BMP_temperature;BMP_pressure;BME280_temperature;BME280_humidity;BME280_pressure;Samples;Min_cycle;Max_cycle;Signal;HPM_P1;HPM_P2
2023/06/14 00:00:40;;;;;;;6.50;5.90;;;23.50;42.10;;;;;;6265003;22;20229;-66
2023/06/14 00:03:08;;;;;;;6.90;6.30;;;23.50;42.10;;;;;;6264042;22;20623;-66
2023/06/14 00:05:38;;;;;;;9.47;5.93;;;23.50;42.10;;;;;;6261651;22;20373;-66
2023/06/14 00:08:07;;;;;;;9.87;5.77;;;23.40;42.00;;;;;;6263066;22;20927;-66
2023/06/14 00:10:35;;;;;;;10.93;6.00;;;23.40;42.30;;;;;;6261875;22;20935;-66
2023/06/14 00:13:01;;;;;;;6.93;6.23;;;23.40;42.60;;;;;;6265690;22;20388;-66
2023/06/14 00:15:27;;;;;;;7.30;6.60;;;23.40;42.50;;;;;;6265113;22;20372;-66
2023/06/14 00:17:52;;;;;;;8.43;6.30;;;23.30;42.50;;;;;;6267534;22;20388;-66
2023/06/14 00:20:18;;;;;;;11.03;6.50;;;23.20;42.40;;;;;;6267531;22;20142;-66
2023/06/14 00:22:45;;;;;;;7.03;5.90;;;23.20;42.60;;;;;;6267246;22;20147;-66
2023/06/14 00:25:10;;;;;;;6.63;5.93;;;23.20;42.60;;;;;;6267981;22;20426;-66
2023/06/14 00:27:36;;;;;;;6.30;5.80;;;23.10;42.90;;;;;;6266237;22;20373;-66
2023/06/14 00:30:01;;;;;;;6.77;6.13;;;23.00;42.80;;;;;;6268682;22;20508;-66
2023/06/14 00:32:27;;;;;;;6.70;5.90;;;23.00;42.80;;;;;;6266822;22;20152;-66
2023/06/14 00:34:53;;;;;;;6.73;6.07;;;23.00;43.00;;;;;;6267713;22;20158;-66
2023/06/14 00:37:18;;;;;;;6.03;5.53;;;23.00;43.00;;;;;;6265993;22;20158;-66
2023/06/14 00:39:44;;;;;;;6.33;5.73;;;22.90;43.10;;;;;;6264724;22;20203;-66
2023/06/14 00:42:10;;;;;;;8.70;6.33;;;22.90;43.40;;;;;;6265497;22;20154;-65
2023/06/14 00:44:35;;;;;;;7.27;5.90;;;22.90;43.30;;;;;;6263764;22;20159;-64
2023/06/14 00:47:01;;;;;;;6.67;6.00;;;22.80;43.40;;;;;;6264902;22;20151;-64
2023/06/14 00:49:29;;;;;;;6.30;5.70;;;22.80;43.40;;;;;;6262215;22;20210;-63
2023/06/14 00:51:55;;;;;;;6.50;5.90;;;22.80;43.50;;;;;;6262516;22;20369;-64
2023/06/14 00:54:20;;;;;;;6.70;5.70;;;22.80;43.60;;;;;;6266249;22;20866;-64
2023/06/14 00:56:46;;;;;;;7.80;6.27;;;22.80;43.60;;;;;;6266777;22;20861;-65
2023/06/14 00:59:12;;;;;;;6.27;5.70;;;22.70;43.70;;;;;;6268122;22;20245;-65
2023/06/14 01:01:38;;;;;;;6.10;5.40;;;22.60;43.70;;;;;;6266747;22;20396;-65
2023/06/14 01:04:05;;;;;;;6.07;5.57;;;22.60;43.70;;;;;;6267339;22;20234;-65
2023/06/14 01:06:41;;;;;;;7.33;5.90;;;22.60;43.80;;;;;;6267222;22;20411;-66
2023/06/14 01:09:22;;;;;;;7.60;6.80;;;22.60;43.90;;;;;;6266244;22;20907;-65
2023/06/14 01:11:59;;;;;;;6.53;5.80;;;22.60;43.90;;;;;;6266567;22;20755;-65
2023/06/14 01:14:27;;;;;;;8.70;6.17;;;22.50;44.00;;;;;;6266552;22;20370;-65
2023/06/14 01:16:53;;;;;;;7.00;5.80;;;22.50;44.00;;;;;;6240524;22;20408;-64
2023/06/14 01:19:22;;;;;;;6.73;5.93;;;22.40;44.20;;;;;;6266759;22;20476;-65
2023/06/14 01:21:50;;;;;;;7.10;6.40;;;22.40;44.30;;;;;;6267370;22;20754;-65
2023/06/14 01:24:19;;;;;;;7.90;6.50;;;22.40;44.50;;;;;;6267059;22;20406;-64
2023/06/14 01:26:46;;;;;;;6.53;5.60;;;22.40;44.60;;;;;;6266628;22;20404;-65
2023/06/14 01:29:17;;;;;;;10.10;6.00;;;22.30;44.70;;;;;;6266379;22;20455;-65
2023/06/14 01:31:43;;;;;;;14.10;6.17;;;22.30;44.70;;;;;;6264384;22;20354;-65
2023/06/14 01:34:09;;;;;;;6.00;5.40;;;22.20;44.80;;;;;;6267934;22;20701;-64
2023/06/14 01:36:38;;;;;;;9.10;6.13;;;22.20;44.90;;;;;;6265988;22;20416;-64
2023/06/14 01:39:05;;;;;;;6.70;6.10;;;22.20;44.90;;;;;;6264635;22;20400;-64
2023/06/14 01:41:31;;;;;;;8.97;6.77;;;22.20;44.90;;;;;;6265027;22;20384;-64
2023/06/14 01:43:58;;;;;;;7.43;6.07;;;22.10;45.10;;;;;;6215225;22;21230;-65
2023/06/14 01:46:24;;;;;;;8.20;6.10;;;22.10;45.10;;;;;;6267406;22;20408;-64
2023/06/14 01:48:50;;;;;;;7.60;6.90;;;22.10;45.30;;;;;;6266132;22;20425;-64
2023/06/14 01:51:15;;;;;;;6.73;6.13;;;22.00;45.20;;;;;;6267921;22;20370;-65
2023/06/14 01:53:41;;;;;;;8.30;5.67;;;22.00;45.30;;;;;;6266390;22;20570;-65
2023/06/14 01:56:07;;;;;;;8.20;6.70;;;22.00;45.30;;;;;;6267294;22;20147;-65
2023/06/14 01:58:32;;;;;;;7.10;6.40;;;22.00;45.30;;;;;;6265882;22;20480;-65
2023/06/14 02:01:00;;;;;;;6.30;5.70;;;21.90;45.40;;;;;;6266867;22;20197;-65
2023/06/14 02:03:26;;;;;;;6.40;5.80;;;21.90;45.40;;;;;;6265344;22;20379;-64
2023/06/14 02:05:52;;;;;;;5.90;5.37;;;21.90;45.50;;;;;;6239257;22;20801;-65
2023/06/14 02:08:17;;;;;;;6.50;5.90;;;21.80;45.50;;;;;;6263972;22;20250;-65
2023/06/14 02:10:43;;;;;;;7.07;6.37;;;21.80;45.60;;;;;;6265982;22;20511;-65
2023/06/14 02:13:09;;;;;;;6.67;6.07;;;21.70;45.50;;;;;;6265909;22;20580;-65
2023/06/14 02:15:35;;;;;;;6.43;5.70;;;21.70;45.60;;;;;;6264804;22;20155;-64
2023/06/14 02:18:02;;;;;;;9.57;5.90;;;21.70;45.60;;;;;;6265359;22;20175;-64
2023/06/14 02:20:27;;;;;;;8.10;5.70;;;21.70;45.60;;;;;;6265282;22;20377;-65
2023/06/14 02:22:53;;;;;;;6.97;6.27;;;21.70;45.60;;;;;;6266820;22;20662;-65
2023/06/14 02:25:19;;;;;;;7.03;5.90;;;21.60;45.70;;;;;;6265384;22;20147;-65
2023/06/14 02:27:44;;;;;;;7.53;6.83;;;21.60;45.60;;;;;;6265674;22;20177;-65
2023/06/14 02:30:11;;;;;;;7.90;6.40;;;21.60;45.60;;;;;;6265984;22;20147;-65
2023/06/14 02:32:36;;;;;;;6.90;6.17;;;21.60;45.60;;;;;;6265786;22;20189;-64
2023/06/14 02:35:03;;;;;;;8.17;5.43;;;21.60;45.60;;;;;;6266860;22;20675;-65
2023/06/14 02:37:29;;;;;;;6.43;5.83;;;21.50;45.80;;;;;;6239452;22;20534;-65
2023/06/14 02:39:55;;;;;;;6.93;6.33;;;21.40;46.40;;;;;;6266074;22;20378;-65
2023/06/14 02:42:21;;;;;;;6.77;5.90;;;21.30;47.20;;;;;;6267104;22;20599;-65
2023/06/14 02:44:50;;;;;;;6.43;5.80;;;21.20;47.30;;;;;;6266577;22;20380;-64
2023/06/14 02:47:19;;;;;;;7.20;6.10;;;21.20;47.70;;;;;;6267856;22;20155;-64
2023/06/14 02:49:48;;;;;;;6.90;6.30;;;21.10;47.90;;;;;;6267096;22;20467;-65
2023/06/14 02:52:14;;;;;;;6.67;5.90;;;21.10;47.90;;;;;;6267236;22;20423;-65
2023/06/14 02:54:40;;;;;;;6.40;5.80;;;21.00;47.90;;;;;;6266634;22;20365;-64
2023/06/14 02:57:07;;;;;;;7.17;6.00;;;21.00;48.00;;;;;;6266455;22;20673;-65
2023/06/14 02:59:33;;;;;;;9.67;6.53;;;20.90;48.00;;;;;;6265666;22;20170;-65
2023/06/14 03:01:59;;;;;;;6.70;6.10;;;20.90;48.80;;;;;;6264780;22;20393;-65
2023/06/14 03:04:25;;;;;;;9.10;6.60;;;20.80;48.50;;;;;;6265682;22;20377;-65
2023/06/14 03:06:51;;;;;;;10.90;6.80;;;20.70;48.50;;;;;;6267072;22;20146;-65
2023/06/14 03:09:17;;;;;;;10.50;6.63;;;20.70;48.70;;;;;;6264770;22;20452;-65
2023/06/14 03:11:43;;;;;;;22.20;7.73;;;20.70;48.80;;;;;;6264593;22;20374;-66
2023/06/14 03:14:08;;;;;;;10.00;6.80;;;20.60;49.00;;;;;;6265815;22;20151;-66
2023/06/14 03:16:34;;;;;;;8.50;6.50;;;20.60;48.90;;;;;;6266257;22;20616;-66
2023/06/14 03:19:00;;;;;;;7.43;6.73;;;20.60;49.00;;;;;;6264682;22;20512;-65
2023/06/14 03:21:26;;;;;;;8.17;6.57;;;20.60;49.00;;;;;;6264456;22;20555;-65
2023/06/14 03:23:52;;;;;;;6.90;6.23;;;20.60;49.10;;;;;;6266093;22;20186;-65
2023/06/14 03:26:18;;;;;;;7.20;6.43;;;20.50;49.20;;;;;;6266427;22;20178;-65
2023/06/14 03:28:49;;;;;;;7.90;6.13;;;20.50;49.10;;;;;;6264160;22;20447;-65
2023/06/14 03:31:16;;;;;;;9.40;7.00;;;20.50;49.20;;;;;;6264713;22;20482;-65
2023/06/14 03:33:41;;;;;;;9.57;6.40;;;20.50;49.20;;;;;;6265208;22;20376;-65
2023/06/14 03:36:07;;;;;;;6.63;5.90;;;20.50;49.30;;;;;;6265918;22;20389;-65
2023/06/14 03:38:32;;;;;;;9.57;6.40;;;20.50;49.30;;;;;;6265364;22;20179;-65
2023/06/14 03:40:58;;;;;;;7.07;6.37;;;20.50;49.40;;;;;;6266539;22;20189;-66
2023/06/14 03:43:24;;;;;;;8.07;6.83;;;20.50;49.40;;;;;;6265305;22;20150;-65
2023/06/14 03:45:50;;;;;;;8.03;6.57;;;20.50;49.30;;;;;;6265359;22;20165;-65
2023/06/14 03:48:16;;;;;;;7.77;6.60;;;20.50;49.30;;;;;;6266253;22;20209;-64
2023/06/14 03:50:42;;;;;;;8.67;6.63;;;20.50;49.40;;;;;;6265488;22;20373;-65
2023/06/14 03:53:08;;;;;;;8.30;6.67;;;20.50;49.40;;;;;;6265051;22;20182;-65
2023/06/14 03:55:34;;;;;;;7.20;6.47;;;20.40;49.50;;;;;;6266243;22;20369;-65
2023/06/14 03:58:00;;;;;;;7.47;6.73;;;20.40;49.50;;;;;;6266337;22;20167;-65
2023/06/14 04:00:26;;;;;;;8.60;6.70;;;20.40;49.60;;;;;;6264465;22;20954;-65
2023/06/14 04:02:52;;;;;;;7.77;7.00;;;20.40;49.60;;;;;;6238258;22;20369;-65
2023/06/14 04:05:20;;;;;;;8.03;7.07;;;20.40;49.70;;;;;;6264796;22;20154;-66
2023/06/14 04:07:48;;;;;;;7.43;6.60;;;20.40;49.70;;;;;;6265258;22;20924;-65
2023/06/14 04:10:15;;;;;;;7.50;6.70;;;20.30;49.80;;;;;;6265383;22;20413;-65
2023/06/14 04:12:41;;;;;;;14.50;6.70;;;20.30;49.90;;;;;;6265658;22;20379;-65
2023/06/14 04:15:08;;;;;;;8.30;7.33;;;20.30;50.10;;;;;;6264566;22;20374;-65
2023/06/14 04:17:34;;;;;;;8.13;6.30;;;20.30;50.10;;;;;;6265961;22;20411;-65
2023/06/14 04:20:00;;;;;;;7.87;7.00;;;20.30;50.30;;;;;;6264409;22;20365;-65
2023/06/14 04:22:30;;;;;;;8.83;7.13;;;20.30;50.20;;;;;;6265013;22;20192;-65
2023/06/14 04:24:56;;;;;;;7.80;6.47;;;20.30;50.20;;;;;;6265115;22;20376;-66
2023/06/14 04:27:25;;;;;;;8.10;6.90;;;20.30;50.40;;;;;;6265479;22;20366;-65
2023/06/14 04:29:59;;;;;;;8.00;7.20;;;20.20;50.50;;;;;;6264168;22;20417;-65
2023/06/14 04:32:26;;;;;;;7.63;6.83;;;20.20;50.50;;;;;;6265389;22;20488;-66
2023/06/14 04:34:59;;;;;;;7.37;6.67;;;20.20;50.50;;;;;;6265581;22;20814;-66
2023/06/14 04:37:25;;;;;;;9.20;7.20;;;20.20;50.60;;;;;;6266761;22;20361;-66
2023/06/14 04:39:51;;;;;;;7.53;6.83;;;20.30;50.70;;;;;;6266530;22;20389;-65
2023/06/14 04:42:20;;;;;;;7.97;6.87;;;20.20;50.60;;;;;;6266744;22;20373;-65
2023/06/14 04:44:47;;;;;;;7.43;6.73;;;20.20;50.70;;;;;;6266704;22;20463;-65
2023/06/14 04:47:14;;;;;;;7.73;7.03;;;20.20;50.70;;;;;;6268402;22;20404;-65
2023/06/14 04:49:40;;;;;;;9.87;6.70;;;20.20;50.80;;;;;;6266282;22;20826;-65
2023/06/14 04:52:07;;;;;;;8.43;7.20;;;20.30;51.00;;;;;;6264971;22;20376;-65
2023/06/14 04:54:33;;;;;;;7.13;6.43;;;20.30;51.10;;;;;;6266084;22;20370;-65
2023/06/14 04:56:59;;;;;;;7.50;6.80;;;20.30;51.20;;;;;;6266386;22;20365;-65
2023/06/14 04:59:24;;;;;;;11.43;7.27;;;20.30;51.20;;;;;;6266236;22;20778;-66
2023/06/14 05:01:51;;;;;;;8.30;7.33;;;20.30;51.10;;;;;;6266932;22;20193;-65
2023/06/14 05:04:17;;;;;;;8.00;7.13;;;20.30;51.10;;;;;;6268551;22;20505;-65
2023/06/14 05:06:49;;;;;;;8.17;7.37;;;20.30;51.10;;;;;;6267675;22;20377;-65
2023/06/14 05:09:18;;;;;;;8.77;7.10;;;20.40;51.10;;;;;;6266613;22;20883;-65
2023/06/14 05:11:43;;;;;;;9.17;7.50;;;20.40;51.20;;;;;;6265830;22;20441;-65
2023/06/14 05:14:10;;;;;;;8.50;7.20;;;20.40;51.30;;;;;;6266795;22;20370;-65
2023/06/14 05:16:36;;;;;;;8.30;7.50;;;20.40;51.40;;;;;;6267056;22;20174;-65
2023/06/14 05:19:04;;;;;;;7.60;7.00;;;20.40;51.30;;;;;;6266641;22;20400;-66
2023/06/14 05:21:30;;;;;;;10.63;8.03;;;20.40;51.50;;;;;;6266414;22;20165;-65
2023/06/14 05:23:56;;;;;;;9.07;8.27;;;20.40;51.60;;;;;;6239738;22;20388;-65
2023/06/14 05:26:23;;;;;;;9.97;8.97;;;20.40;51.70;;;;;;6267197;22;20381;-65
2023/06/14 05:28:50;;;;;;;11.80;10.40;;;20.50;51.80;;;;;;6259162;22;20212;-65
2023/06/14 05:31:15;;;;;;;8.77;7.87;;;20.40;51.90;;;;;;6261531;22;20374;-65
2023/06/14 05:33:41;;;;;;;10.47;9.47;;;20.50;52.00;;;;;;6265996;22;20828;-65
2023/06/14 05:36:07;;;;;;;16.73;8.27;;;20.50;52.00;;;;;;6235614;22;20158;-65
2023/06/14 05:38:32;;;;;;;8.00;7.20;;;20.50;52.10;;;;;;6264165;22;20175;-65
2023/06/14 05:40:59;;;;;;;9.07;8.17;;;20.50;52.10;;;;;;6266325;22;20170;-65
2023/06/14 05:43:25;;;;;;;8.37;7.67;;;20.50;52.10;;;;;;6265434;22;20197;-65
2023/06/14 05:45:50;;;;;;;8.80;8.03;;;20.60;52.30;;;;;;6265275;22;21020;-65
2023/06/14 05:48:16;;;;;;;8.73;7.70;;;20.60;52.30;;;;;;6263861;22;20757;-65
2023/06/14 05:50:41;;;;;;;9.57;8.57;;;20.60;52.40;;;;;;6265745;22;20158;-65
2023/06/14 05:53:07;;;;;;;8.40;7.60;;;20.60;52.50;;;;;;6265685;22;20150;-65
2023/06/14 05:55:32;;;;;;;8.57;7.70;;;20.70;52.50;;;;;;6266906;22;20157;-65
2023/06/14 05:57:58;;;;;;;7.77;7.00;;;20.70;52.50;;;;;;6264154;22;20238;-65
2023/06/14 06:00:23;;;;;;;10.63;7.60;;;20.70;52.60;;;;;;6237526;22;20155;-65
2023/06/14 06:02:49;;;;;;;8.60;7.70;;;20.80;52.30;;;;;;6238794;22;20150;-65
2023/06/14 06:05:15;;;;;;;8.83;7.90;;;20.80;52.00;;;;;;6266271;22;20981;-67
2023/06/14 06:07:41;;;;;;;9.63;7.00;;;20.70;51.70;;;;;;6262783;22;20162;-66
2023/06/14 06:10:08;;;;;;;8.33;7.53;;;20.80;51.90;;;;;;6262762;22;20175;-65
2023/06/14 06:12:33;;;;;;;7.53;6.93;;;20.80;51.80;;;;;;6266472;22;20377;-65
2023/06/14 06:14:59;;;;;;;9.60;7.97;;;20.80;51.80;;;;;;6267101;22;20392;-65
2023/06/14 06:17:28;;;;;;;8.17;7.27;;;20.90;51.90;;;;;;6266595;22;20147;-66
2023/06/14 06:19:54;;;;;;;11.23;7.53;;;20.90;52.00;;;;;;6258419;22;20465;-66
2023/06/14 06:22:19;;;;;;;7.63;7.00;;;21.00;52.10;;;;;;6266008;22;20432;-66
2023/06/14 06:24:45;;;;;;;9.33;7.77;;;21.00;52.10;;;;;;6265888;22;20243;-65
2023/06/14 06:27:12;;;;;;;10.27;9.00;;;21.00;52.10;;;;;;6265094;22;20161;-64
2023/06/14 06:29:38;;;;;;;14.90;9.33;;;21.00;52.00;;;;;;6262819;22;20824;-66
2023/06/14 06:32:04;;;;;;;10.97;8.33;;;21.10;52.20;;;;;;6263134;22;20374;-64
2023/06/14 06:34:30;;;;;;;13.03;11.10;;;21.10;52.10;;;;;;6264229;22;20214;-65
2023/06/14 06:36:55;;;;;;;9.20;8.13;;;21.20;52.00;;;;;;6264743;22;20412;-66
2023/06/14 06:39:21;;;;;;;8.53;7.67;;;21.20;51.90;;;;;;6266040;22;20193;-64
2023/06/14 06:41:46;;;;;;;10.73;8.33;;;21.20;51.80;;;;;;6265721;22;20525;-65
2023/06/14 06:44:12;;;;;;;10.13;9.10;;;21.20;51.90;;;;;;6265472;22;20165;-65
2023/06/14 06:46:42;;;;;;;13.10;11.80;;;21.20;51.80;;;;;;6266830;22;20178;-65
2023/06/14 06:49:09;;;;;;;11.63;9.43;;;21.30;52.00;;;;;;6258462;22;20182;-65
2023/06/14 06:51:36;;;;;;;12.73;10.77;;;21.30;52.00;;;;;;6263432;22;20366;-65
2023/06/14 06:54:02;;;;;;;16.03;11.20;;;21.40;52.20;;;;;;6265685;22;20502;-66
2023/06/14 06:56:28;;;;;;;11.07;8.90;;;21.40;52.20;;;;;;6265893;22;20495;-64
2023/06/14 06:58:53;;;;;;;28.80;24.73;;;21.40;52.20;;;;;;6258237;22;20445;-65
2023/06/14 07:01:19;;;;;;;10.23;8.70;;;21.40;52.20;;;;;;6257033;22;20677;-65
2023/06/14 07:03:45;;;;;;;10.00;9.00;;;21.40;52.20;;;;;;6265143;22;20151;-65
2023/06/14 07:06:11;;;;;;;9.10;7.00;;;21.50;52.10;;;;;;6264670;22;20377;-65
2023/06/14 07:08:38;;;;;;;14.27;12.23;;;21.50;52.00;;;;;;6262850;22;20421;-65
2023/06/14 07:11:05;;;;;;;8.87;8.07;;;21.60;52.00;;;;;;6264196;22;20150;-65
2023/06/14 07:13:31;;;;;;;7.73;7.03;;;21.70;52.10;;;;;;6264494;22;20466;-65
2023/06/14 07:16:00;;;;;;;9.80;7.53;;;21.70;52.20;;;;;;6264500;22;20377;-64
2023/06/14 07:18:27;;;;;;;14.37;11.60;;;21.80;52.10;;;;;;6263257;22;20435;-64
2023/06/14 07:20:55;;;;;;;7.93;7.23;;;21.90;52.10;;;;;;6264753;22;20554;-65
2023/06/14 07:23:21;;;;;;;8.60;7.80;;;22.00;52.00;;;;;;6264574;22;20849;-64
2023/06/14 07:25:47;;;;;;;8.27;7.57;;;21.90;51.90;;;;;;6263102;22;20389;-66
2023/06/14 07:28:12;;;;;;;8.00;7.30;;;22.00;52.10;;;;;;6263854;22;20247;-66
2023/06/14 07:30:38;;;;;;;8.70;7.90;;;22.00;52.00;;;;;;6264965;22;20651;-66
2023/06/14 07:33:03;;;;;;;13.80;9.47;;;22.10;52.10;;;;;;6264169;22;20142;-67
2023/06/14 07:35:29;;;;;;;9.00;8.20;;;22.10;51.90;;;;;;6263994;22;20147;-66
2023/06/14 07:37:54;;;;;;;8.80;7.70;;;22.10;51.90;;;;;;6265647;22;20170;-65
2023/06/14 07:40:20;;;;;;;8.33;7.57;;;22.20;51.80;;;;;;6268881;22;20157;-67
2023/06/14 07:42:46;;;;;;;8.60;7.70;;;22.20;51.80;;;;;;6263771;22;20147;-65
2023/06/14 07:45:14;;;;;;;12.23;7.87;;;22.30;51.70;;;;;;6265094;22;20519;-66
2023/06/14 07:47:40;;;;;;;7.63;6.83;;;22.30;51.50;;;;;;6262825;22;20178;-66
2023/06/14 07:50:06;;;;;;;12.07;6.23;;;22.30;51.70;;;;;;6260915;22;20420;-65
2023/06/14 07:52:31;;;;;;;9.13;7.00;;;22.40;51.80;;;;;;6262048;22;20220;-66
2023/06/14 07:54:57;;;;;;;7.20;6.50;;;22.40;51.80;;;;;;6263289;22;20704;-66
2023/06/14 07:57:23;;;;;;;11.23;7.47;;;22.40;51.60;;;;;;6264147;22;20161;-65
2023/06/14 07:59:49;;;;;;;8.17;7.30;;;22.40;51.70;;;;;;6263669;22;20369;-66
2023/06/14 08:02:15;;;;;;;7.80;7.03;;;22.50;51.60;;;;;;6263906;22;20762;-66
2023/06/14 08:04:41;;;;;;;7.50;6.80;;;22.50;51.40;;;;;;6264683;22;20388;-67
2023/06/14 08:07:07;;;;;;;7.43;6.53;;;22.50;51.30;;;;;;6263290;22;20237;-66
2023/06/14 08:09:33;;;;;;;6.73;6.13;;;22.50;51.10;;;;;;6264179;22;20464;-66
2023/06/14 08:11:58;;;;;;;7.63;6.83;;;22.60;51.10;;;;;;6263948;22;20147;-66
2023/06/14 08:14:24;;;;;;;10.57;6.90;;;22.70;51.20;;;;;;6238999;22;20237;-66
2023/06/14 08:16:49;;;;;;;7.90;7.20;;;22.60;51.50;;;;;;6266206;22;20489;-66
2023/06/14 08:19:16;;;;;;;7.40;6.70;;;22.70;51.50;;;;;;6265969;22;20170;-66
2023/06/14 08:21:43;;;;;;;8.70;6.70;;;22.70;51.70;;;;;;6266495;22;20151;-66
2023/06/14 08:24:12;;;;;;;7.27;6.50;;;22.80;51.30;;;;;;6264961;22;20403;-66
2023/06/14 08:26:38;;;;;;;8.40;7.00;;;22.90;51.10;;;;;;6264082;22;20476;-67
2023/06/14 08:29:04;;;;;;;11.40;6.97;;;23.00;51.20;;;;;;6262996;22;20448;-67
2023/06/14 08:31:31;;;;;;;6.77;6.10;;;23.10;51.10;;;;;;6263637;22;20373;-66
2023/06/14 08:33:57;;;;;;;7.07;6.30;;;23.20;50.00;;;;;;6268082;22;20154;-67
2023/06/14 08:36:22;;;;;;;7.53;6.67;;;23.20;49.70;;;;;;6268081;22;20393;-66
2023/06/14 08:38:48;;;;;;;10.67;6.30;;;23.20;49.40;;;;;;6267087;22;20170;-66
2023/06/14 08:41:22;;;;;;;8.13;6.57;;;23.30;49.40;;;;;;6266752;22;20155;-66
2023/06/14 08:43:48;;;;;;;7.53;6.83;;;23.30;49.10;;;;;;6239933;22;20501;-66
2023/06/14 08:46:19;;;;;;;9.40;7.10;;;23.30;49.00;;;;;;6240678;22;20381;-66
2023/06/14 08:48:49;;;;;;;9.93;6.37;;;23.40;49.10;;;;;;6265613;22;20448;-65
2023/06/14 08:51:22;;;;;;;7.90;6.20;;;23.40;49.00;;;;;;6267136;22;20430;-65
2023/06/14 08:53:58;;;;;;;8.20;7.40;;;23.50;49.00;;;;;;6264474;22;20437;-65
2023/06/14 08:56:27;;;;;;;6.97;6.20;;;23.50;48.90;;;;;;6265710;22;20353;-66
2023/06/14 08:58:54;;;;;;;8.40;6.67;;;23.60;49.00;;;;;;6264812;22;20408;-64
2023/06/14 09:01:21;;;;;;;7.63;6.90;;;23.60;48.80;;;;;;6267397;22;20458;-66
2023/06/14 09:03:48;;;;;;;7.07;6.47;;;23.70;49.00;;;;;;6267140;22;20388;-65
2023/06/14 09:06:15;;;;;;;7.10;6.23;;;23.70;49.20;;;;;;6238309;22;20480;-66
2023/06/14 09:08:46;;;;;;;9.50;6.63;;;23.80;48.70;;;;;;6264273;22;20473;-66
2023/06/14 09:11:18;;;;;;;9.87;6.83;;;23.80;48.60;;;;;;6266494;22;20394;-66
2023/06/14 09:13:44;;;;;;;9.50;6.47;;;23.90;48.40;;;;;;6263902;22;20357;-66
2023/06/14 09:16:10;;;;;;;8.20;7.20;;;24.00;48.30;;;;;;6260954;22;20495;-66
2023/06/14 09:18:38;;;;;;;7.80;6.37;;;24.10;48.20;;;;;;6262638;22;20838;-66
2023/06/14 09:21:07;;;;;;;8.73;6.47;;;24.10;48.10;;;;;;6261956;22;20154;-67
2023/06/14 09:23:41;;;;;;;8.97;6.57;;;24.20;48.40;;;;;;6264909;22;20384;-67
2023/06/14 09:26:08;;;;;;;6.87;6.27;;;24.20;48.30;;;;;;6237947;22;20385;-65
2023/06/14 09:28:34;;;;;;;7.17;6.47;;;24.30;47.50;;;;;;6264702;22;20429;-65
2023/06/14 09:31:01;;;;;;;7.30;6.70;;;24.30;47.40;;;;;;6263483;22;20377;-67
2023/06/14 09:33:27;;;;;;;9.30;6.10;;;24.40;47.50;;;;;;6262342;22;20492;-67
2023/06/14 09:35:54;;;;;;;6.50;5.90;;;24.40;47.30;;;;;;6265218;22;20464;-67
2023/06/14 09:38:20;;;;;;;6.40;5.80;;;24.40;47.00;;;;;;6265092;22;21238;-66
2023/06/14 09:40:46;;;;;;;6.33;5.73;;;24.50;47.50;;;;;;6266025;22;20398;-66
2023/06/14 09:43:11;;;;;;;6.87;6.03;;;24.60;47.30;;;;;;6265208;22;20208;-65
2023/06/14 09:45:39;;;;;;;6.80;5.50;;;24.60;47.10;;;;;;6265707;22;20151;-66
2023/06/14 09:48:07;;;;;;;8.07;5.60;;;24.70;46.40;;;;;;6265817;22;20657;-66
2023/06/14 09:50:34;;;;;;;6.43;5.63;;;24.70;46.90;;;;;;6266733;22;20370;-65
2023/06/14 09:53:08;;;;;;;8.70;6.23;;;24.70;47.10;;;;;;6265265;22;20374;-66
2023/06/14 09:55:39;;;;;;;6.70;6.20;;;24.80;47.20;;;;;;6266257;22;20384;-66
2023/06/14 09:58:06;;;;;;;9.20;6.27;;;24.80;47.10;;;;;;6265208;22;20385;-66
2023/06/14 10:00:33;;;;;;;6.50;5.90;;;24.90;46.90;;;;;;6264082;22;20397;-66
2023/06/14 10:03:06;;;;;;;6.70;6.10;;;25.00;46.90;;;;;;6266310;22;20687;-67
2023/06/14 10:05:35;;;;;;;9.30;6.27;;;25.10;45.60;;;;;;6263530;22;20353;-68
2023/06/14 10:08:04;;;;;;;7.70;6.70;;;25.10;45.40;;;;;;6264386;22;20397;-68
2023/06/14 10:10:30;;;;;;;6.53;5.80;;;25.20;45.80;;;;;;6263263;22;20840;-67
2023/06/14 10:12:56;;;;;;;6.47;5.27;;;25.20;45.50;;;;;;6260927;22;20443;-67
2023/06/14 10:15:53;;;;;;;6.70;6.00;;;25.20;45.00;;;;;;6262865;22;20369;-67
2023/06/14 10:18:41;;;;;;;7.30;6.17;;;25.30;45.30;;;;;;6264823;22;20246;-68
2023/06/14 10:21:37;;;;;;;7.40;6.50;;;25.30;45.50;;;;;;6265652;22;20365;-68
2023/06/14 10:24:07;;;;;;;6.20;5.60;;;25.30;45.50;;;;;;6264540;22;20369;-67
2023/06/14 10:26:33;;;;;;;6.60;5.40;;;25.30;45.40;;;;;;6260950;22;20407;-67
2023/06/14 10:29:08;;;;;;;7.37;6.67;;;25.40;45.90;;;;;;6262635;22;20421;-67
2023/06/14 10:31:42;;;;;;;6.80;6.17;;;25.40;45.90;;;;;;6263805;22;20134;-67
2023/06/14 10:34:07;;;;;;;6.80;5.93;;;25.50;45.70;;;;;;6264192;22;20460;-66
2023/06/14 10:36:34;;;;;;;10.60;5.97;;;25.60;44.10;;;;;;6263493;22;20829;-67
2023/06/14 10:39:17;;;;;;;6.37;5.77;;;25.70;44.60;;;;;;6264095;22;20289;-67
2023/06/14 10:41:55;;;;;;;6.60;5.67;;;25.70;44.70;;;;;;6265001;22;20408;-67
2023/06/14 10:44:20;;;;;;;6.30;5.70;;;25.80;44.10;;;;;;6265469;22;20368;-67
2023/06/14 10:46:47;;;;;;;6.60;5.90;;;25.80;43.80;;;;;;6262793;22;20368;-67
2023/06/14 10:49:18;;;;;;;6.47;5.77;;;25.90;44.10;;;;;;6259257;22;20273;-67
2023/06/14 10:51:51;;;;;;;7.30;6.60;;;25.90;43.30;;;;;;6263427;22;20859;-67
2023/06/14 10:54:20;;;;;;;6.13;5.63;;;25.90;42.80;;;;;;6264194;22;20358;-66
2023/06/14 10:56:53;;;;;;;9.00;6.33;;;25.80;43.00;;;;;;6260912;22;20370;-65
2023/06/14 10:59:20;;;;;;;7.33;6.00;;;26.00;43.70;;;;;;6261461;22;20809;-66
2023/06/14 11:02:19;;;;;;;6.40;5.83;;;26.10;43.20;;;;;;6263765;22;20401;-67
2023/06/14 11:04:50;;;;;;;6.20;5.70;;;26.20;42.90;;;;;;6262454;22;20700;-67
2023/06/14 11:07:43;;;;;;;6.47;5.87;;;26.30;43.10;;;;;;6259034;22;20373;-67
2023/06/14 11:10:37;;;;;;;8.53;6.30;;;26.40;42.70;;;;;;6260667;22;20437;-67
2023/06/14 11:13:03;;;;;;;7.33;6.07;;;26.40;42.30;;;;;;6262232;22;20449;-68
2023/06/14 11:15:33;;;;;;;6.67;5.77;;;26.50;42.80;;;;;;6232524;22;20412;-67
2023/06/14 11:18:07;;;;;;;7.70;6.53;;;26.70;42.80;;;;;;6259596;22;20228;-67
2023/06/14 11:20:35;;;;;;;6.97;6.37;;;26.80;42.50;;;;;;6261172;22;20374;-67
2023/06/14 11:23:01;;;;;;;8.83;6.27;;;26.90;42.20;;;;;;6260986;22;20832;-67
2023/06/14 11:25:30;;;;;;;8.23;6.83;;;26.80;42.10;;;;;;6258799;22;20361;-66
2023/06/14 11:27:56;;;;;;;9.63;6.73;;;26.80;42.40;;;;;;6233548;22;20505;-66
2023/06/14 11:30:22;;;;;;;8.90;6.97;;;26.80;42.70;;;;;;6258453;22;20463;-67
2023/06/14 11:32:49;;;;;;;7.03;6.40;;;26.80;42.60;;;;;;6259896;22;20480;-67
2023/06/14 11:35:15;;;;;;;12.93;6.60;;;26.80;42.30;;;;;;6260783;22;20460;-67
2023/06/14 11:37:44;;;;;;;10.43;7.43;;;26.80;42.40;;;;;;6259595;22;20865;-67
2023/06/14 11:40:11;;;;;;;6.60;6.07;;;26.70;42.70;;;;;;6260477;22;20902;-67
2023/06/14 11:42:41;;;;;;;7.17;6.47;;;26.80;42.60;;;;;;6261417;22;20373;-67
2023/06/14 11:45:11;;;;;;;7.00;6.50;;;26.70;42.60;;;;;;6261224;22;20763;-67
2023/06/14 11:47:39;;;;;;;7.63;6.73;;;26.60;42.60;;;;;;6263094;22;20378;-67
2023/06/14 11:50:06;;;;;;;7.53;6.83;;;26.60;42.70;;;;;;6263810;22;20550;-67
2023/06/14 11:52:32;;;;;;;7.17;6.33;;;26.70;42.70;;;;;;6257956;22;20374;-67
2023/06/14 11:54:58;;;;;;;7.83;7.13;;;26.80;42.40;;;;;;6263744;22;20387;-68
2023/06/14 11:57:25;;;;;;;7.60;6.80;;;26.90;42.10;;;;;;6258236;22;20370;-68
2023/06/14 11:59:51;;;;;;;7.93;7.23;;;27.10;42.20;;;;;;6263308;22;20373;-68
2023/06/14 12:02:17;;;;;;;6.73;6.10;;;27.30;42.40;;;;;;6262715;22;20389;-68
2023/06/14 12:04:50;;;;;;;7.70;6.90;;;27.60;42.60;;;;;;6264399;22;20389;-67
2023/06/14 12:07:17;;;;;;;7.83;6.17;;;27.90;42.20;;;;;;6263851;22;20462;-68
2023/06/14 12:10:07;;;;;;;6.77;6.17;;;28.00;41.90;;;;;;6265752;22;20467;-68
2023/06/14 12:12:36;;;;;;;5.93;5.27;;;28.00;40.80;;;;;;6263692;22;20380;-68
2023/06/14 12:15:07;;;;;;;8.00;7.07;;;27.90;40.70;;;;;;6261882;22;20369;-68
2023/06/14 12:17:34;;;;;;;7.93;7.23;;;27.90;40.60;;;;;;6258547;22;20861;-67
2023/06/14 12:20:13;;;;;;;7.50;6.90;;;27.90;40.50;;;;;;6260579;22;20531;-67
2023/06/14 12:22:46;;;;;;;7.10;6.40;;;27.90;40.40;;;;;;6262180;22;20365;-67
2023/06/14 12:25:26;;;;;;;7.10;5.83;;;28.20;40.70;;;;;;6265476;22;20332;-68
2023/06/14 12:27:53;;;;;;;9.43;6.20;;;28.60;40.70;;;;;;6264685;22;20393;-68
2023/06/14 12:30:18;;;;;;;11.37;7.20;;;29.00;40.80;;;;;;6266581;22;20419;-68
2023/06/14 12:32:45;;;;;;;6.77;6.17;;;29.30;40.40;;;;;;6266884;22;20824;-68
2023/06/14 12:35:10;;;;;;;11.73;5.70;;;29.50;39.20;;;;;;6266873;22;20215;-68
2023/06/14 12:37:36;;;;;;;7.43;6.40;;;29.60;39.20;;;;;;6264620;22;20435;-68
2023/06/14 12:40:05;;;;;;;6.93;5.87;;;29.70;39.00;;;;;;6267572;22;20661;-67
2023/06/14 12:42:31;;;;;;;6.83;6.03;;;29.90;38.70;;;;;;6264526;22;20606;-67
2023/06/14 12:44:57;;;;;;;6.60;5.87;;;29.70;36.90;;;;;;6266751;22;20439;-66
2023/06/14 12:47:22;;;;;;;5.70;5.13;;;29.50;36.70;;;;;;6266512;22;20233;-66